Time;durP1;ratioP1;P1;durP2;ratioP2;P2;SDS_P1;SDS_P2;PMS_P1;PMS_P2;Temp;Humidity;BMP_temperature;BMP_pressure;BME280_temperature;BME280_humidity;BME280_pressure;Samples;Min_cycle;Max_cycle;Signal;HPM_P1;HPM_P2
2022/03/27 00:01:35;;;;;;;29.27;16.67;;;;;;;;;;5020070;28;20104;-73
2022/03/27 00:04:00;;;;;;;36.20;17.92;;;;;;;;;;5023387;28;20021;-73
2022/03/27 00:06:26;;;;;;;33.95;18.88;;;;;;;;;;5027425;28;20029;-73
2022/03/27 00:08:52;;;;;;;28.60;16.65;;;;;;;;;;5027207;28;20056;-73
2022/03/27 00:11:28;;;;;;;31.15;17.42;;;;;;;;;;5027251;28;20048;-73
2022/03/27 00:13:58;;;;;;;34.95;17.30;;;;;;;;;;5026486;28;20080;-74
2022/03/27 00:16:23;;;;;;;33.25;18.23;;;;;;;;;;5021066;28;20046;-72
2022/03/27 00:18:55;;;;;;;32.45;17.90;;;;;;;;;;5009914;28;20438;-73
2022/03/27 00:21:21;;;;;;;;;;;;;;;;;;5015553;28;20064;-73
2022/03/27 00:23:48;;;;;;;31.00;17.17;;;;;;;;;;5010248;28;20362;-73
2022/03/27 00:26:14;;;;;;;33.63;16.27;;;;;;;;;;5026881;28;20489;-73
2022/03/27 00:28:40;;;;;;;36.72;18.17;;;;;;;;;;5021110;28;20025;-72
2022/03/27 00:31:09;;;;;;;33.20;17.52;;;;;;;;;;5008800;28;20033;-73
2022/03/27 00:33:35;;;;;;;39.67;17.65;;;;;;;;;;5016820;28;20112;-73
2022/03/27 00:36:03;;;;;;;31.15;17.08;;;;;;;;;;5022118;28;20037;-73
2022/03/27 00:38:29;;;;;;;30.38;16.70;;;;;;;;;;5028101;28;20057;-73
2022/03/27 00:40:56;;;;;;;35.65;18.58;;;;;;;;;;5009258;28;20072;-73
2022/03/27 00:43:23;;;;;;;35.25;18.38;;;;;;;;;;4999614;28;20026;-74
2022/03/27 00:45:49;;;;;;;35.95;18.30;;;;;;;;;;5008963;28;20053;-73
2022/03/27 00:48:19;;;;;;;32.58;18.80;;;;;;;;;;5008550;28;20029;-73
2022/03/27 00:50:47;;;;;;;32.47;18.58;;;;;;;;;;5010062;28;20034;-74
2022/03/27 00:53:14;;;;;;;31.17;16.77;;;;;;;;;;5009275;28;20049;-74
2022/03/27 00:55:40;;;;;;;36.45;19.23;;;;;;;;;;5009223;28;20045;-73
2022/03/27 00:58:06;;;;;;;40.08;19.35;;;;;;;;;;5009252;28;20069;-73
2022/03/27 01:00:37;;;;;;;33.97;19.08;;;;;;;;;;5020269;28;20033;-73
2022/03/27 01:03:11;;;;;;;37.08;20.02;;;;;;;;;;5016875;28;20104;-74
2022/03/27 01:05:37;;;;;;;37.90;19.65;;;;;;;;;;5021476;28;20437;-74
2022/03/27 01:08:06;;;;;;;36.15;19.27;;;;;;;;;;5025421;28;20069;-73
2022/03/27 01:10:31;;;;;;;38.22;19.15;;;;;;;;;;5014963;28;20033;-74
2022/03/27 01:12:58;;;;;;;39.25;21.63;;;;;;;;;;5024384;28;20091;-73
2022/03/27 01:15:27;;;;;;;37.95;19.17;;;;;;;;;;5026460;28;20440;-73
2022/03/27 01:17:52;;;;;;;36.50;20.48;;;;;;;;;;5024696;28;20041;-73
2022/03/27 01:20:35;;;;;;;43.40;19.88;;;;;;;;;;5023595;28;20021;-74
2022/03/27 01:23:07;;;;;;;37.50;20.02;;;;;;;;;;5021811;28;20074;-74
2022/03/27 01:25:33;;;;;;;36.25;19.77;;;;;;;;;;4993025;28;20022;-74
2022/03/27 01:27:59;;;;;;;36.10;19.52;;;;;;;;;;5019369;28;20034;-73
2022/03/27 01:30:24;;;;;;;35.63;19.35;;;;;;;;;;5014479;28;20029;-74
2022/03/27 01:32:51;;;;;;;40.67;19.83;;;;;;;;;;5023215;28;20037;-73
2022/03/27 01:35:19;;;;;;;39.67;19.25;;;;;;;;;;5029396;28;20071;-73
2022/03/27 01:37:46;;;;;;;35.65;19.65;;;;;;;;;;5027534;28;20037;-72
2022/03/27 01:40:12;;;;;;;42.90;19.63;;;;;;;;;;5028614;28;20037;-75
2022/03/27 01:42:39;;;;;;;36.70;20.35;;;;;;;;;;5023685;28;20029;-73
2022/03/27 01:45:06;;;;;;;38.97;20.23;;;;;;;;;;5027241;28;20017;-73
2022/03/27 01:47:32;;;;;;;33.90;17.95;;;;;;;;;;5029572;28;20029;-73
2022/03/27 01:50:00;;;;;;;35.72;17.83;;;;;;;;;;5018399;28;20045;-73
2022/03/27 01:52:25;;;;;;;34.05;18.00;;;;;;;;;;5013729;28;20030;-73
2022/03/27 01:54:51;;;;;;;41.05;18.13;;;;;;;;;;5014331;28;20026;-73
2022/03/27 01:57:17;;;;;;;36.80;18.95;;;;;;;;;;5017055;28;20034;-73
2022/03/27 01:59:42;;;;;;;35.03;17.10;;;;;;;;;;5028868;28;20416;-74
2022/03/27 02:02:08;;;;;;;34.40;17.95;;;;;;;;;;5019561;28;20038;-75
2022/03/27 02:04:34;;;;;;;36.08;17.65;;;;;;;;;;5012385;28;20491;-75
2022/03/27 02:07:01;;;;;;;34.47;17.38;;;;;;;;;;5013138;28;20112;-72
2022/03/27 02:09:27;;;;;;;33.92;17.80;;;;;;;;;;5021591;28;20080;-72
2022/03/27 02:11:53;;;;;;;31.48;16.98;;;;;;;;;;5028512;28;20029;-72
2022/03/27 02:14:19;;;;;;;31.00;17.00;;;;;;;;;;5027960;28;20516;-72
2022/03/27 02:16:45;;;;;;;29.83;16.03;;;;;;;;;;5025042;28;20029;-72
2022/03/27 02:19:11;;;;;;;37.23;16.10;;;;;;;;;;5011896;28;20032;-72
2022/03/27 02:21:38;;;;;;;32.45;16.27;;;;;;;;;;5015758;28;20060;-73
2022/03/27 02:24:04;;;;;;;29.90;16.92;;;;;;;;;;5000476;28;20034;-73
2022/03/27 02:26:31;;;;;;;32.00;17.03;;;;;;;;;;5022550;28;20032;-73
2022/03/27 02:28:57;;;;;;;31.33;15.73;;;;;;;;;;5022332;28;20040;-74
2022/03/27 02:31:22;;;;;;;28.55;15.65;;;;;;;;;;5029309;28;20021;-74
2022/03/27 02:33:48;;;;;;;27.73;15.27;;;;;;;;;;5020699;28;20501;-74
2022/03/27 02:36:16;;;;;;;31.53;15.77;;;;;;;;;;5017154;28;20065;-74
2022/03/27 02:38:43;;;;;;;28.37;13.23;;;;;;;;;;5019581;28;20033;-73
2022/03/27 02:41:09;;;;;;;29.57;14.57;;;;;;;;;;5025731;28;20385;-72
2022/03/27 02:43:38;;;;;;;26.70;12.70;;;;;;;;;;5028774;28;20043;-73
2022/03/27 02:46:06;;;;;;;26.43;11.77;;;;;;;;;;5024749;28;20033;-73
2022/03/27 02:48:32;;;;;;;27.37;13.17;;;;;;;;;;5011334;28;20137;-73
2022/03/27 02:50:58;;;;;;;23.33;13.27;;;;;;;;;;5025905;28;20056;-73
2022/03/27 02:53:24;;;;;;;26.90;14.43;;;;;;;;;;5028417;28;20025;-73
2022/03/27 02:55:50;;;;;;;27.30;13.47;;;;;;;;;;5015160;28;20053;-72
2022/03/27 02:58:16;;;;;;;31.60;13.37;;;;;;;;;;5012652;28;20218;-73
2022/03/27 03:00:45;;;;;;;24.33;12.53;;;;;;;;;;5011440;28;20121;-72
2022/03/27 03:03:12;;;;;;;25.87;12.23;;;;;;;;;;5011110;28;20053;-73
2022/03/27 03:05:42;;;;;;;24.73;12.13;;;;;;;;;;5020243;28;20022;-72
2022/03/27 03:08:11;;;;;;;27.83;13.17;;;;;;;;;;5005324;28;20037;-72
2022/03/27 03:10:39;;;;;;;22.90;12.27;;;;;;;;;;5002749;28;20040;-72
2022/03/27 03:13:06;;;;;;;26.83;12.73;;;;;;;;;;5027691;28;20036;-74
2022/03/27 03:15:32;;;;;;;25.43;12.67;;;;;;;;;;5022670;28;20029;-74
2022/03/27 03:17:58;;;;;;;26.57;13.67;;;;;;;;;;5015741;28;20168;-74
2022/03/27 03:20:24;;;;;;;30.63;13.73;;;;;;;;;;5022547;28;20435;-74
2022/03/27 03:22:52;;;;;;;22.97;11.83;;;;;;;;;;5022405;28;20036;-73
2022/03/27 03:25:18;;;;;;;22.77;12.00;;;;;;;;;;5022423;28;20053;-74
2022/03/27 03:27:44;;;;;;;26.97;13.43;;;;;;;;;;5022922;28;20116;-74
2022/03/27 03:30:10;;;;;;;28.23;13.13;;;;;;;;;;5015754;28;20022;-74
2022/03/27 03:32:36;;;;;;;23.03;11.97;;;;;;;;;;5021690;28;20025;-74
2022/03/27 03:35:04;;;;;;;26.40;13.47;;;;;;;;;;5015427;28;20025;-74
2022/03/27 03:37:30;;;;;;;21.60;10.73;;;;;;;;;;5016006;28;20034;-73
2022/03/27 03:39:57;;;;;;;30.10;13.33;;;;;;;;;;5027254;28;20556;-74
2022/03/27 03:42:23;;;;;;;23.87;11.30;;;;;;;;;;5016007;28;20109;-74
2022/03/27 03:44:49;;;;;;;22.00;11.33;;;;;;;;;;5022232;28;20028;-74
2022/03/27 03:47:15;;;;;;;23.27;12.13;;;;;;;;;;5015994;28;20040;-73
2022/03/27 03:49:41;;;;;;;21.47;10.93;;;;;;;;;;5016147;28;20037;-72
2022/03/27 03:52:07;;;;;;;23.60;11.17;;;;;;;;;;5022898;28;20033;-72
2022/03/27 03:54:35;;;;;;;22.90;11.77;;;;;;;;;;5026077;28;20096;-72
2022/03/27 03:57:03;;;;;;;18.73;11.00;;;;;;;;;;5024314;28;20128;-72
2022/03/27 03:59:31;;;;;;;20.93;10.93;;;;;;;;;;5017824;28;20107;-71
2022/03/27 04:01:58;;;;;;;27.87;12.40;;;;;;;;;;5017659;28;20038;-73
2022/03/27 04:04:24;;;;;;;22.73;10.43;;;;;;;;;;5017056;28;20104;-74
2022/03/27 04:06:53;;;;;;;24.33;11.17;;;;;;;;;;5015820;28;20032;-73
2022/03/27 04:09:20;;;;;;;22.80;10.90;;;;;;;;;;5018416;28;20029;-73
2022/03/27 04:11:47;;;;;;;21.97;11.50;;;;;;;;;;5028679;28;20113;-73
2022/03/27 04:14:13;;;;;;;24.23;11.07;;;;;;;;;;5022031;28;20041;-73
2022/03/27 04:16:48;;;;;;;22.13;11.27;;;;;;;;;;5015032;28;20410;-73
2022/03/27 04:19:14;;;;;;;81.67;18.57;;;;;;;;;;5016100;28;20425;-74
2022/03/27 04:21:41;;;;;;;44.50;13.90;;;;;;;;;;5026909;28;20040;-74
2022/03/27 04:24:08;;;;;;;25.67;10.80;;;;;;;;;;5015734;28;20025;-74
2022/03/27 04:26:35;;;;;;;23.07;10.60;;;;;;;;;;5022684;28;20028;-74
2022/03/27 04:29:03;;;;;;;26.77;10.83;;;;;;;;;;5020711;28;20022;-74
2022/03/27 04:31:29;;;;;;;22.43;10.40;;;;;;;;;;5018321;28;20108;-74
2022/03/27 04:33:56;;;;;;;22.87;10.27;;;;;;;;;;5021265;28;20033;-74
2022/03/27 04:36:21;;;;;;;24.70;10.20;;;;;;;;;;5020933;28;20099;-74
2022/03/27 04:38:47;;;;;;;21.40;10.83;;;;;;;;;;5019636;28;20536;-73
2022/03/27 04:41:12;;;;;;;30.97;11.97;;;;;;;;;;5017100;28;20034;-74
2022/03/27 04:43:38;;;;;;;19.73;9.83;;;;;;;;;;5019761;28;20057;-74
2022/03/27 04:46:04;;;;;;;20.47;11.23;;;;;;;;;;5015459;28;20076;-74
2022/03/27 04:48:31;;;;;;;23.40;11.07;;;;;;;;;;5019736;28;20075;-73
2022/03/27 04:50:56;;;;;;;20.87;9.93;;;;;;;;;;5015445;28;20045;-73
2022/03/27 04:53:22;;;;;;;23.60;12.53;;;;;;;;;;5020005;28;20385;-72
2022/03/27 04:55:49;;;;;;;24.93;11.60;;;;;;;;;;5021171;28;20080;-72
2022/03/27 04:58:16;;;;;;;24.37;11.67;;;;;;;;;;5015834;28;20368;-74
2022/03/27 05:00:42;;;;;;;24.90;12.17;;;;;;;;;;5021845;28;20029;-72
2022/03/27 05:03:08;;;;;;;24.10;12.33;;;;;;;;;;5017037;28;20396;-72
2022/03/27 05:05:34;;;;;;;26.90;12.53;;;;;;;;;;5024303;28;20473;-72
2022/03/27 05:08:00;;;;;;;24.17;13.03;;;;;;;;;;5019032;28;20040;-73
2022/03/27 05:10:26;;;;;;;27.87;12.83;;;;;;;;;;5025632;28;20033;-72
2022/03/27 05:12:52;;;;;;;26.23;12.20;;;;;;;;;;5024314;28;20052;-75
2022/03/27 05:15:18;;;;;;;25.63;12.33;;;;;;;;;;5018621;28;20034;-73
2022/03/27 05:17:56;;;;;;;27.03;12.60;;;;;;;;;;5018854;28;20080;-74
2022/03/27 05:20:23;;;;;;;27.40;11.90;;;;;;;;;;5023003;28;20041;-74
2022/03/27 05:22:49;;;;;;;26.67;12.40;;;;;;;;;;5008438;28;20065;-74
2022/03/27 05:25:16;;;;;;;23.53;11.47;;;;;;;;;;5025731;28;20041;-75
2022/03/27 05:27:47;;;;;;;24.50;11.63;;;;;;;;;;4989736;28;20104;-74
2022/03/27 05:30:18;;;;;;;25.70;11.32;;;;;;;;;;5020527;28;20033;-73
2022/03/27 05:32:45;;;;;;;23.07;10.80;;;;;;;;;;5022741;28;20025;-73
2022/03/27 05:35:11;;;;;;;22.37;11.20;;;;;;;;;;5020983;28;20120;-74
2022/03/27 05:37:38;;;;;;;21.43;11.63;;;;;;;;;;5025564;28;20432;-74
2022/03/27 05:40:06;;;;;;;25.17;12.33;;;;;;;;;;5000875;28;20039;-73
2022/03/27 05:42:32;;;;;;;21.27;11.00;;;;;;;;;;5024193;28;20032;-74
2022/03/27 05:44:59;;;;;;;25.23;11.90;;;;;;;;;;5020653;28;20041;-74
2022/03/27 05:47:25;;;;;;;21.00;10.53;;;;;;;;;;5021107;28;20021;-74
2022/03/27 05:49:51;;;;;;;25.07;11.57;;;;;;;;;;5022219;28;20494;-74
2022/03/27 05:52:17;;;;;;;22.80;10.20;;;;;;;;;;5020507;28;20017;-74
2022/03/27 05:54:43;;;;;;;24.67;11.13;;;;;;;;;;5020762;28;20482;-73
2022/03/27 05:57:09;;;;;;;23.40;11.20;;;;;;;;;;5021080;28;20034;-73
2022/03/27 05:59:34;;;;;;;33.33;12.77;;;;;;;;;;5022063;28;20386;-73
2022/03/27 06:02:00;;;;;;;20.30;10.03;;;;;;;;;;5020627;28;20021;-74
2022/03/27 06:04:26;;;;;;;21.60;11.27;;;;;;;;;;5024863;28;20508;-74
2022/03/27 06:06:51;;;;;;;22.77;10.93;;;;;;;;;;5022306;28;20171;-72
2022/03/27 06:09:17;;;;;;;30.93;15.03;;;;;;;;;;5018559;28;20034;-73
2022/03/27 06:11:42;;;;;;;22.27;11.33;;;;;;;;;;5020336;28;20022;-75
2022/03/27 06:14:08;;;;;;;24.40;12.20;;;;;;;;;;5018129;28;20060;-73
2022/03/27 06:16:33;;;;;;;24.03;12.37;;;;;;;;;;5019500;28;20034;-73
2022/03/27 06:18:59;;;;;;;21.80;11.57;;;;;;;;;;5022065;28;20041;-73
2022/03/27 06:21:25;;;;;;;22.53;10.47;;;;;;;;;;5025184;28;20088;-73
2022/03/27 06:23:50;;;;;;;24.33;10.90;;;;;;;;;;5021520;28;20025;-73
2022/03/27 06:26:16;;;;;;;21.13;10.63;;;;;;;;;;5023565;28;20035;-74
2022/03/27 06:28:41;;;;;;;28.60;10.30;;;;;;;;;;5022061;28;20030;-74
2022/03/27 06:31:07;;;;;;;19.47;9.77;;;;;;;;;;5023281;28;20121;-73
2022/03/27 06:33:32;;;;;;;21.60;9.97;;;;;;;;;;5017876;28;20037;-73
2022/03/27 06:36:01;;;;;;;19.80;9.57;;;;;;;;;;5023697;28;20492;-73
2022/03/27 06:38:27;;;;;;;19.53;10.30;;;;;;;;;;5018162;28;20036;-73
2022/03/27 06:40:52;;;;;;;15.80;8.53;;;;;;;;;;5024359;28;20029;-74
2022/03/27 06:43:18;;;;;;;23.53;10.27;;;;;;;;;;5023379;28;20033;-73
2022/03/27 06:45:44;;;;;;;21.03;10.13;;;;;;;;;;5021941;28;20103;-74
2022/03/27 06:48:10;;;;;;;17.53;9.83;;;;;;;;;;5017425;28;20029;-74
2022/03/27 06:50:35;;;;;;;21.77;10.80;;;;;;;;;;5022199;28;20060;-73
2022/03/27 06:53:01;;;;;;;20.43;10.57;;;;;;;;;;5024773;28;20033;-74
2022/03/27 06:55:28;;;;;;;22.70;10.63;;;;;;;;;;5018434;28;20034;-73
2022/03/27 06:57:54;;;;;;;21.67;10.17;;;;;;;;;;5028985;28;20124;-74
2022/03/27 07:03:05;;;;;;;24.33;10.37;;;;;;;;;;5021164;28;20062;-73
2022/03/27 07:05:39;;;;;;;17.30;9.17;;;;;;;;;;5026120;28;20086;-73
2022/03/27 07:08:15;;;;;;;16.00;8.43;;;;;;;;;;5018264;28;20032;-74
2022/03/27 07:10:43;;;;;;;17.73;9.73;;;;;;;;;;5022940;28;20033;-74
2022/03/27 07:13:10;;;;;;;18.87;9.50;;;;;;;;;;5021564;28;20046;-74
2022/03/27 07:15:37;;;;;;;22.47;9.83;;;;;;;;;;5022076;28;20508;-74
2022/03/27 07:18:03;;;;;;;22.40;10.30;;;;;;;;;;5006046;28;20512;-74
2022/03/27 07:20:31;;;;;;;18.07;9.33;;;;;;;;;;5021728;28;20466;-74
2022/03/27 07:23:01;;;;;;;18.30;10.77;;;;;;;;;;5022461;28;20064;-74
2022/03/27 07:25:29;;;;;;;21.13;9.43;;;;;;;;;;5015826;28;20018;-73
2022/03/27 07:27:55;;;;;;;18.27;8.73;;;;;;;;;;5016559;28;20026;-73
2022/03/27 07:30:22;;;;;;;20.37;9.23;;;;;;;;;;5022185;28;20049;-73
2022/03/27 07:32:52;;;;;;;18.60;9.80;;;;;;;;;;5016085;28;20030;-73
2022/03/27 07:35:18;;;;;;;17.77;9.63;;;;;;;;;;5022246;28;20025;-73
2022/03/27 07:37:44;;;;;;;25.43;10.47;;;;;;;;;;5017604;28;20030;-74
2022/03/27 07:40:11;;;;;;;18.57;9.10;;;;;;;;;;5023339;28;20029;-73
2022/03/27 07:42:40;;;;;;;19.13;9.20;;;;;;;;;;5021782;28;20111;-74
2022/03/27 07:45:06;;;;;;;18.77;8.80;;;;;;;;;;5022530;28;20025;-73
2022/03/27 07:47:32;;;;;;;16.90;9.90;;;;;;;;;;5016698;28;20104;-74
2022/03/27 07:49:59;;;;;;;15.17;8.83;;;;;;;;;;5022255;28;20034;-73
2022/03/27 07:52:25;;;;;;;19.10;9.90;;;;;;;;;;5016520;28;20033;-73
2022/03/27 07:54:51;;;;;;;18.30;9.63;;;;;;;;;;5016477;28;20026;-73
2022/03/27 07:57:20;;;;;;;18.17;9.90;;;;;;;;;;5021701;28;20401;-73
2022/03/27 07:59:46;;;;;;;17.75;9.48;;;;;;;;;;5020371;28;20040;-73
2022/03/27 08:02:11;;;;;;;17.27;10.18;;;;;;;;;;5025189;28;20041;-73
2022/03/27 08:04:37;;;;;;;18.02;10.65;;;;;;;;;;5019827;28;20473;-73
2022/03/27 08:07:03;;;;;;;18.73;9.50;;;;;;;;;;5020635;28;20041;-74
2022/03/27 08:09:28;;;;;;;21.48;9.65;;;;;;;;;;5015802;28;20474;-74
2022/03/27 08:11:55;;;;;;;22.67;12.63;;;;;;;;;;5021228;28;20026;-73
2022/03/27 08:14:22;;;;;;;17.57;10.57;;;;;;;;;;5020669;28;20038;-74
2022/03/27 08:16:48;;;;;;;16.98;9.68;;;;;;;;;;5022855;28;20393;-74
2022/03/27 08:19:13;;;;;;;18.67;9.95;;;;;;;;;;5014988;28;20036;-75
2022/03/27 08:21:39;;;;;;;17.50;9.30;;;;;;;;;;5023406;28;20053;-73
2022/03/27 08:24:06;;;;;;;18.23;10.30;;;;;;;;;;5016125;28;20021;-74
2022/03/27 08:29:16;;;;;;;21.10;10.73;;;;;;;;;;5015977;28;20095;-74
2022/03/27 08:31:41;;;;;;;21.40;11.30;;;;;;;;;;5017698;28;20033;-73
2022/03/27 08:34:07;;;;;;;20.83;11.20;;;;;;;;;;5019693;28;20029;-73
2022/03/27 08:36:33;;;;;;;18.20;10.60;;;;;;;;;;5017177;28;20029;-74
2022/03/27 08:38:59;;;;;;;19.33;10.05;;;;;;;;;;5019431;28;20485;-73
2022/03/27 08:41:25;;;;;;;19.52;10.68;;;;;;;;;;5015919;28;20025;-74
2022/03/27 08:43:58;;;;;;;18.48;9.95;;;;;;;;;;5016750;28;20413;-74
2022/03/27 08:46:28;;;;;;;18.25;10.35;;;;;;;;;;5017850;28;20474;-75
2022/03/27 08:49:00;;;;;;;20.00;11.38;;;;;;;;;;5019480;28;20079;-75
2022/03/27 08:51:54;;;;;;;19.52;11.75;;;;;;;;;;5016269;28;20053;-74
2022/03/27 08:54:25;;;;;;;18.58;10.30;;;;;;;;;;5016216;28;20054;-74
2022/03/27 08:57:18;;;;;;;19.48;10.38;;;;;;;;;;5019577;28;20095;-74
2022/03/27 08:59:46;;;;;;;17.52;9.57;;;;;;;;;;5021375;28;20042;-74
2022/03/27 09:02:14;;;;;;;16.73;8.45;;;;;;;;;;5014071;28;20054;-74
2022/03/27 09:04:41;;;;;;;13.40;8.45;;;;;;;;;;5020496;28;20021;-74
2022/03/27 09:07:07;;;;;;;16.88;9.10;;;;;;;;;;5014511;28;20076;-74
2022/03/27 09:09:33;;;;;;;27.92;9.43;;;;;;;;;;5022525;28;20433;-73
2022/03/27 09:12:03;;;;;;;16.80;8.73;;;;;;;;;;5021671;28;20112;-74
2022/03/27 09:14:32;;;;;;;15.18;8.32;;;;;;;;;;4999444;28;20065;-74
2022/03/27 09:17:06;;;;;;;16.23;7.95;;;;;;;;;;5014161;28;20828;-74
2022/03/27 09:19:40;;;;;;;16.33;9.00;;;;;;;;;;5016392;28;20038;-74
2022/03/27 09:22:17;;;;;;;23.63;12.13;;;;;;;;;;5022280;28;20041;-74
2022/03/27 09:24:48;;;;;;;17.52;8.45;;;;;;;;;;5016801;28;20033;-73
2022/03/27 09:27:15;;;;;;;17.02;9.88;;;;;;;;;;5019990;28;20052;-74
2022/03/27 09:30:06;;;;;;;20.88;8.40;;;;;;;;;;5005143;28;20040;-75
2022/03/27 09:32:37;;;;;;;17.35;8.98;;;;;;;;;;5018889;28;20394;-74
2022/03/27 09:35:08;;;;;;;19.42;9.80;;;;;;;;;;5005828;28;20045;-73
2022/03/27 09:37:45;;;;;;;16.75;9.32;;;;;;;;;;5023328;28;20037;-74
2022/03/27 09:40:12;;;;;;;16.58;8.77;;;;;;;;;;5019866;28;20037;-73
2022/03/27 09:42:40;;;;;;;16.35;9.18;;;;;;;;;;5019571;28;20033;-75
2022/03/27 09:45:18;;;;;;;16.30;9.52;;;;;;;;;;5024401;28;20025;-73
2022/03/27 09:47:46;;;;;;;17.45;9.40;;;;;;;;;;5025846;28;20121;-72
2022/03/27 09:50:39;;;;;;;17.55;9.07;;;;;;;;;;5018513;28;20025;-73
2022/03/27 09:53:27;;;;;;;18.15;9.20;;;;;;;;;;5019028;28;20042;-74
2022/03/27 09:55:56;;;;;;;18.10;9.68;;;;;;;;;;5020121;28;20026;-74
2022/03/27 09:58:40;;;;;;;17.17;8.73;;;;;;;;;;5022664;28;20026;-73
2022/03/27 10:01:22;;;;;;;23.30;9.73;;;;;;;;;;5026385;28;20057;-74
2022/03/27 10:04:10;;;;;;;16.13;8.85;;;;;;;;;;5019970;28;20474;-75
2022/03/27 10:06:40;;;;;;;16.00;8.35;;;;;;;;;;5019252;28;20273;-74
2022/03/27 10:09:08;;;;;;;18.08;9.40;;;;;;;;;;5024227;28;20120;-76
2022/03/27 10:11:35;;;;;;;15.25;7.95;;;;;;;;;;5023738;28;20060;-73
2022/03/27 10:14:04;;;;;;;14.82;8.20;;;;;;;;;;5025459;28;20038;-74
2022/03/27 10:16:34;;;;;;;16.67;8.48;;;;;;;;;;5021574;28;20039;-74
2022/03/27 10:19:05;;;;;;;21.27;9.07;;;;;;;;;;5026598;28;20026;-74
2022/03/27 10:21:32;;;;;;;12.13;7.15;;;;;;;;;;5030110;28;20103;-74
2022/03/27 10:24:14;;;;;;;16.48;8.40;;;;;;;;;;5020511;28;20041;-74
2022/03/27 10:26:45;;;;;;;16.98;9.68;;;;;;;;;;5018240;28;20033;-74
2022/03/27 10:29:13;;;;;;;17.33;9.35;;;;;;;;;;5026024;28;20174;-74
2022/03/27 10:31:40;;;;;;;20.85;9.45;;;;;;;;;;5017531;28;20044;-75
2022/03/27 10:34:10;;;;;;;16.02;9.52;;;;;;;;;;5023782;28;20038;-74
2022/03/27 10:36:50;;;;;;;17.05;8.75;;;;;;;;;;5024747;28;20397;-74
2022/03/27 10:39:42;;;;;;;14.25;8.27;;;;;;;;;;5019001;28;20092;-74
2022/03/27 10:42:27;;;;;;;18.88;9.77;;;;;;;;;;5015984;28;20049;-73
2022/03/27 10:45:02;;;;;;;13.63;7.82;;;;;;;;;;5026942;28;20044;-74
2022/03/27 10:47:29;;;;;;;22.23;9.55;;;;;;;;;;5020339;28;20037;-74
2022/03/27 10:50:00;;;;;;;19.02;8.63;;;;;;;;;;5022043;28;20029;-74
2022/03/27 10:52:30;;;;;;;15.70;8.05;;;;;;;;;;5018882;28;20083;-74
2022/03/27 10:55:02;;;;;;;16.70;8.73;;;;;;;;;;5000610;28;20045;-74
2022/03/27 10:57:35;;;;;;;18.02;9.73;;;;;;;;;;5022994;28;20389;-74
2022/03/27 11:00:06;;;;;;;16.77;8.35;;;;;;;;;;5020156;28;20041;-74
2022/03/27 11:02:44;;;;;;;15.02;7.93;;;;;;;;;;5022945;28;20105;-74
2022/03/27 11:05:31;;;;;;;18.42;8.55;;;;;;;;;;5016768;28;20528;-73
2022/03/27 11:08:18;;;;;;;16.23;8.80;;;;;;;;;;5022286;28;20253;-74
2022/03/27 11:10:58;;;;;;;13.43;8.65;;;;;;;;;;5016234;28;20033;-74
2022/03/27 11:13:26;;;;;;;12.18;6.97;;;;;;;;;;5018606;28;20112;-74
2022/03/27 11:16:01;;;;;;;15.95;8.13;;;;;;;;;;5022138;28;20038;-74
2022/03/27 11:18:37;;;;;;;17.55;8.45;;;;;;;;;;5018890;28;20029;-73
2022/03/27 11:21:08;;;;;;;15.77;9.13;;;;;;;;;;5018058;28;20060;-74
2022/03/27 11:23:37;;;;;;;16.10;8.25;;;;;;;;;;5023225;28;20030;-75
2022/03/27 11:26:18;;;;;;;13.02;8.00;;;;;;;;;;5020304;28;20045;-75
2022/03/27 11:28:50;;;;;;;16.98;9.45;;;;;;;;;;5016329;28;20038;-73
2022/03/27 11:31:18;;;;;;;15.27;8.73;;;;;;;;;;5022595;28;20040;-74
2022/03/27 11:34:04;;;;;;;12.10;6.97;;;;;;;;;;5016336;28;20038;-73
2022/03/27 11:36:31;;;;;;;12.68;7.22;;;;;;;;;;5018760;28;20472;-74
2022/03/27 11:39:13;;;;;;;14.68;7.05;;;;;;;;;;5015464;28;20270;-74
2022/03/27 11:41:44;;;;;;;11.63;7.25;;;;;;;;;;5023265;28;20103;-74
2022/03/27 11:47:23;;;;;;;17.85;7.43;;;;;;;;;;5023442;28;20432;-74
2022/03/27 11:49:51;;;;;;;13.80;8.00;;;;;;;;;;5015792;28;20353;-73
2022/03/27 11:52:20;;;;;;;13.43;7.45;;;;;;;;;;5005314;28;20441;-74
2022/03/27 11:54:49;;;;;;;14.23;7.97;;;;;;;;;;5016578;28;20124;-75
2022/03/27 11:57:17;;;;;;;13.18;7.25;;;;;;;;;;5023506;28;20112;-74
2022/03/27 11:59:51;;;;;;;16.38;8.40;;;;;;;;;;5020300;28;20021;-74
2022/03/27 12:02:18;;;;;;;17.08;8.23;;;;;;;;;;5020954;28;20039;-74
2022/03/27 12:04:52;;;;;;;17.20;8.32;;;;;;;;;;5018956;28;20129;-74
2022/03/27 12:07:18;;;;;;;15.93;7.75;;;;;;;;;;5018754;28;20029;-74
2022/03/27 12:09:44;;;;;;;16.88;8.85;;;;;;;;;;5005800;28;20022;-73
2022/03/27 12:12:12;;;;;;;12.35;7.65;;;;;;;;;;5018847;28;20048;-74
2022/03/27 12:14:52;;;;;;;13.15;7.97;;;;;;;;;;5020382;28;20801;-73
2022/03/27 12:17:18;;;;;;;12.70;7.70;;;;;;;;;;5017605;28;20034;-74
2022/03/27 12:20:05;;;;;;;15.25;8.43;;;;;;;;;;5021863;28;20373;-74
2022/03/27 12:22:51;;;;;;;13.30;8.65;;;;;;;;;;5019814;28;20030;-74
2022/03/27 12:25:30;;;;;;;13.25;8.00;;;;;;;;;;5028312;28;20108;-73
2022/03/27 12:30:50;;;;;;;18.27;8.32;;;;;;;;;;5025492;28;20048;-74
2022/03/27 12:33:23;;;;;;;20.95;9.85;;;;;;;;;;5021399;28;20460;-75
2022/03/27 12:36:06;;;;;;;17.05;9.52;;;;;;;;;;5014689;28;20104;-73
2022/03/27 12:38:33;;;;;;;15.73;8.50;;;;;;;;;;5014818;28;20055;-74
2022/03/27 12:40:58;;;;;;;17.02;8.63;;;;;;;;;;5019741;28;20068;-73
2022/03/27 12:43:24;;;;;;;17.23;7.70;;;;;;;;;;5021991;28;20069;-74
2022/03/27 12:45:50;;;;;;;12.20;6.63;;;;;;;;;;5020306;28;20492;-74
2022/03/27 12:48:21;;;;;;;12.95;7.53;;;;;;;;;;5012511;28;20026;-74
2022/03/27 12:50:52;;;;;;;10.23;6.80;;;;;;;;;;5013795;28;20389;-74
2022/03/27 12:53:21;;;;;;;14.93;8.05;;;;;;;;;;5020900;28;20040;-73
2022/03/27 12:55:53;;;;;;;11.45;7.32;;;;;;;;;;5010696;28;20030;-74
2022/03/27 12:58:38;;;;;;;11.10;7.18;;;;;;;;;;5013624;28;20025;-74
2022/03/27 13:01:13;;;;;;;18.33;6.85;;;;;;;;;;5016482;28;20514;-74
2022/03/27 13:03:42;;;;;;;14.10;7.00;;;;;;;;;;5014309;28;20033;-75
2022/03/27 13:06:09;;;;;;;13.70;7.32;;;;;;;;;;5019575;28;20045;-73
2022/03/27 13:08:39;;;;;;;11.30;6.82;;;;;;;;;;5014848;28;20409;-73
2022/03/27 13:11:10;;;;;;;12.23;7.40;;;;;;;;;;5019884;28;20025;-74
2022/03/27 13:13:44;;;;;;;21.48;8.18;;;;;;;;;;5014466;28;20617;-74
2022/03/27 13:16:27;;;;;;;13.55;6.78;;;;;;;;;;5017715;28;20054;-75
2022/03/27 13:19:03;;;;;;;12.05;7.22;;;;;;;;;;5021632;28;20064;-74
2022/03/27 13:21:40;;;;;;;10.13;7.03;;;;;;;;;;5018828;28;20072;-75
2022/03/27 13:24:11;;;;;;;12.48;7.00;;;;;;;;;;5015491;28;20109;-74
2022/03/27 13:26:39;;;;;;;9.85;6.53;;;;;;;;;;5025162;28;20029;-74
2022/03/27 13:29:06;;;;;;;16.73;9.98;;;;;;;;;;5017606;28;20034;-73
2022/03/27 13:31:34;;;;;;;14.65;7.25;;;;;;;;;;5028760;28;20033;-73
2022/03/27 13:34:02;;;;;;;14.60;7.68;;;;;;;;;;5018858;28;20017;-75
2022/03/27 13:36:28;;;;;;;13.52;7.43;;;;;;;;;;5018001;28;20112;-74
2022/03/27 13:38:53;;;;;;;12.05;6.82;;;;;;;;;;5023405;28;20119;-74
2022/03/27 13:44:03;;;;;;;12.93;7.20;;;;;;;;;;5025432;28;20045;-74
2022/03/27 13:46:29;;;;;;;12.57;7.13;;;;;;;;;;5028163;28;20485;-74
2022/03/27 13:48:55;;;;;;;10.25;6.30;;;;;;;;;;5022828;28;20036;-74
2022/03/27 13:51:20;;;;;;;13.93;7.60;;;;;;;;;;5017559;28;20036;-76
2022/03/27 13:53:46;;;;;;;13.20;6.72;;;;;;;;;;5017373;28;20030;-75
2022/03/27 13:56:11;;;;;;;11.93;6.80;;;;;;;;;;5017545;28;20141;-74
2022/03/27 13:58:37;;;;;;;9.32;6.45;;;;;;;;;;5030500;28;20036;-74
2022/03/27 14:01:03;;;;;;;14.95;7.35;;;;;;;;;;5019961;28;20061;-74
2022/03/27 14:03:29;;;;;;;11.50;6.88;;;;;;;;;;5021649;28;20060;-75
2022/03/27 14:05:57;;;;;;;10.02;6.32;;;;;;;;;;5023876;28;20686;-75
2022/03/27 14:08:22;;;;;;;9.07;6.32;;;;;;;;;;5018988;28;20034;-75
2022/03/27 14:10:48;;;;;;;11.50;7.10;;;;;;;;;;5023684;28;20048;-74
2022/03/27 14:13:14;;;;;;;13.30;7.00;;;;;;;;;;5018471;28;20405;-74
2022/03/27 14:15:40;;;;;;;10.38;6.35;;;;;;;;;;5018755;28;20037;-75
2022/03/27 14:18:06;;;;;;;14.68;7.00;;;;;;;;;;5027171;28;20412;-75
2022/03/27 14:20:32;;;;;;;11.10;6.45;;;;;;;;;;5031265;28;20029;-75
2022/03/27 14:22:58;;;;;;;14.82;6.63;;;;;;;;;;5028697;28;20500;-76
2022/03/27 14:25:24;;;;;;;10.50;6.38;;;;;;;;;;5019270;28;20109;-77
2022/03/27 14:27:50;;;;;;;12.98;7.65;;;;;;;;;;5026887;28;20434;-77
2022/03/27 14:30:16;;;;;;;11.15;6.25;;;;;;;;;;5023326;28;20021;-76
2022/03/27 14:32:45;;;;;;;12.77;6.25;;;;;;;;;;5028133;28;20033;-76
2022/03/27 14:35:12;;;;;;;9.13;4.57;;;;;;;;;;5021654;28;20120;-77
2022/03/27 14:37:38;;;;;;;9.30;4.72;;;;;;;;;;5023260;28;20029;-75
2022/03/27 14:40:09;;;;;;;11.05;5.05;;;;;;;;;;5000300;28;20049;-75
2022/03/27 14:42:35;;;;;;;9.07;5.57;;;;;;;;;;5026640;28;20061;-76
2022/03/27 14:45:01;;;;;;;12.40;4.55;;;;;;;;;;5023003;28;20111;-75
2022/03/27 14:47:32;;;;;;;12.27;5.40;;;;;;;;;;5023178;28;20170;-76